Time;durP1;ratioP1;P1;durP2;ratioP2;P2;SDS_P1;SDS_P2;PMS_P1;PMS_P2;Temp;Humidity;BMP_temperature;BMP_pressure;BME280_temperature;BME280_humidity;BME280_pressure;Samples;Min_cycle;Max_cycle;Signal;HPM_P1;HPM_P2
2022/03/22 00:00:10;;;;;;;;;;;;;;;;;;1043702;28;803;-38
2022/03/22 00:00:43;;;;;;;;;;;;;;;;;;1043647;28;799;-37
2022/03/22 00:01:14;;;;;;;;;;;;;;;;;;1043656;28;862;-37
2022/03/22 00:01:47;;;;;;;;;;;;;;;;;;1043421;28;879;-38
2022/03/22 00:02:18;;;;;;;;;;;;;;;;;;1043469;28;887;-37
2022/03/22 00:02:48;;;;;;;;;;;;;;;;;;1043661;28;914;-38
2022/03/22 00:03:23;;;;;;;;;;;;;;;;;;1043468;28;902;-36
2022/03/22 00:03:53;;;;;;;;;;;;;;;;;;1043658;28;887;-38
2022/03/22 00:04:24;;;;;;;;;;;;;;;;;;1043528;28;856;-37
2022/03/22 00:04:55;;;;;;;;;;;;;;;;;;1043546;28;920;-37
2022/03/22 00:05:25;;;;;;;;;;;;;;;;;;1043630;28;965;-34
2022/03/22 00:05:56;;;;;;;;;;;;;;;;;;1043464;28;875;-37
2022/03/22 00:06:26;;;;;;;;;;;;;;;;;;1043640;28;800;-37
2022/03/22 00:06:56;;;;;;;;;;;;;;;;;;1043522;28;850;-37
2022/03/22 00:07:27;;;;;;;;;;;;;;;;;;1043473;28;1244;-38
2022/03/22 00:07:59;;;;;;;;;;;;;;;;;;1043462;28;946;-38
2022/03/22 00:08:29;;;;;;;;;;;;;;;;;;1043541;28;823;-38
2022/03/22 00:09:00;;;;;;;;;;;;;;;;;;1043487;28;946;-36
2022/03/22 00:09:33;;;;;;;;;;;;;;;;;;1043427;28;1156;-37
2022/03/22 00:10:03;;;;;;;;;;;;;;;;;;1043503;28;938;-38
2022/03/22 00:10:34;;;;;;;;;;;;;;;;;;1043563;28;800;-37
2022/03/22 00:11:04;;;;;;;;;;;;;;;;;;1043412;28;2351;-38
2022/03/22 00:11:35;;;;;;;;;;;;;;;;;;1043529;28;827;-38
2022/03/22 00:12:05;;;;;;;;;;;;;;;;;;1043708;28;914;-36
2022/03/22 00:12:36;;;;;;;;;;;;;;;;;;1043369;28;914;-37
2022/03/22 00:13:07;;;;;;;;;;;;;;;;;;1043692;28;890;-37
2022/03/22 00:13:38;;;;;;;;;;;;;;;;;;1042696;28;1324;-37
2022/03/22 00:14:09;;;;;;;;;;;;;;;;;;1043648;28;834;-38
2022/03/22 00:14:40;;;;;;;;;;;;;;;;;;1043558;28;938;-37
2022/03/22 00:15:11;;;;;;;;;;;;;;;;;;1043559;28;886;-37
2022/03/22 00:15:41;;;;;;;;;;;;;;;;;;1043543;28;815;-36
2022/03/22 00:16:12;;;;;;;;;;;;;;;;;;1043608;28;887;-38
2022/03/22 00:16:43;;;;;;;;;;;;;;;;;;1043189;28;922;-38
2022/03/22 00:17:13;;;;;;;;;;;;;;;;;;1043674;28;934;-38
2022/03/22 00:17:43;;;;;;;;;;;;;;;;;;1043229;28;949;-37
2022/03/22 00:18:13;;;;;;;;;;;;;;;;;;1043735;28;894;-38
2022/03/22 00:18:44;;;;;;;;;;;;;;;;;;1043634;28;807;-37
2022/03/22 00:19:14;;;;;;;;;;;;;;;;;;1043673;28;869;-37
2022/03/22 00:19:44;;;;;;;;;;;;;;;;;;1043677;28;891;-38
2022/03/22 00:20:15;;;;;;;;;;;;;;;;;;1043515;28;865;-37
2022/03/22 00:20:46;;;;;;;;;;;;;;;;;;1043632;28;795;-39
2022/03/22 00:21:19;;;;;;;;;;;;;;;;;;1043620;28;930;-34
2022/03/22 00:21:50;;;;;;;;;;;;;;;;;;1041349;28;1176;-36
2022/03/22 00:22:20;;;;;;;;;;;;;;;;;;1039495;28;858;-36
2022/03/22 00:22:51;;;;;;;;;;;;;;;;;;1039507;28;933;-36
2022/03/22 00:23:22;;;;;;;;;;;;;;;;;;1039398;28;909;-39
2022/03/22 00:23:52;;;;;;;;;;;;;;;;;;1039263;28;929;-38
2022/03/22 00:24:23;;;;;;;;;;;;;;;;;;1039358;28;921;-39
2022/03/22 00:24:54;;;;;;;;;;;;;;;;;;1039613;28;921;-38
2022/03/22 00:25:24;;;;;;;;;;;;;;;;;;1039399;28;1164;-39
2022/03/22 00:25:54;;;;;;;;;;;;;;;;;;1039392;28;922;-38
2022/03/22 00:26:25;;;;;;;;;;;;;;;;;;1039525;28;812;-38
2022/03/22 00:26:56;;;;;;;;;;;;;;;;;;1039377;28;854;-38
2022/03/22 00:27:26;;;;;;;;;;;;;;;;;;1039503;28;966;-38
2022/03/22 00:27:58;;;;;;;;;;;;;;;;;;1039290;28;800;-37
2022/03/22 00:28:30;;;;;;;;;;;;;;;;;;1039350;28;946;-38
2022/03/22 00:29:02;;;;;;;;;;;;;;;;;;1039485;28;942;-38
2022/03/22 00:29:32;;;;;;;;;;;;;;;;;;1039524;28;779;-39
2022/03/22 00:30:03;;;;;;;;;;;;;;;;;;1039276;28;993;-38
2022/03/22 00:30:34;;;;;;;;;;;;;;;;;;1039222;28;977;-38
2022/03/22 00:31:04;;;;;;;;;;;;;;;;;;1038886;28;1902;-39
2022/03/22 00:31:35;;;;;;;;;;;;;;;;;;1038921;28;863;-38
2022/03/22 00:32:08;;;;;;;;;;;;;;;;;;1039006;28;1013;-39
2022/03/22 00:32:38;;;;;;;;;;;;;;;;;;1039466;28;846;-39
2022/03/22 00:33:09;;;;;;;;;;;;;;;;;;1039372;28;664;-39
2022/03/22 00:33:40;;;;;;;;;;;;;;;;;;1039475;28;857;-39
2022/03/22 00:34:13;;;;;;;;;;;;;;;;;;1039379;28;1057;-38
2022/03/22 00:34:46;;;;;;;;;;;;;;;;;;1039387;28;795;-38
2022/03/22 00:35:18;;;;;;;;;;;;;;;;;;1039363;28;901;-39
2022/03/22 00:35:48;;;;;;;;;;;;;;;;;;1039553;28;878;-37
2022/03/22 00:36:19;;;;;;;;;;;;;;;;;;1034855;28;941;-38
2022/03/22 00:36:50;;;;;;;;;;;;;;;;;;1035059;28;897;-37
2022/03/22 00:37:20;;;;;;;;;;;;;;;;;;1034978;28;827;-38
2022/03/22 00:37:53;;;;;;;;;;;;;;;;;;1035096;28;929;-37
2022/03/22 00:38:23;;;;;;;;;;;;;;;;;;1039423;28;846;-38
2022/03/22 00:38:55;;;;;;;;;;;;;;;;;;1039014;28;795;-38
2022/03/22 00:39:25;;;;;;;;;;;;;;;;;;1039491;28;853;-39
2022/03/22 00:39:56;;;;;;;;;;;;;;;;;;1039413;28;819;-36
2022/03/22 00:40:28;;;;;;;;;;;;;;;;;;1039412;28;842;-37
2022/03/22 00:40:58;;;;;;;;;;;;;;;;;;1039372;28;783;-39
2022/03/22 00:41:29;;;;;;;;;;;;;;;;;;1039451;28;838;-35
2022/03/22 00:41:59;;;;;;;;;;;;;;;;;;1039402;28;1680;-38
2022/03/22 00:42:30;;;;;;;;;;;;;;;;;;1039494;28;918;-38
2022/03/22 00:43:01;;;;;;;;;;;;;;;;;;1039242;28;1663;-38
2022/03/22 00:43:34;;;;;;;;;;;;;;;;;;1039462;28;886;-38
2022/03/22 00:44:04;;;;;;;;;;;;;;;;;;1039365;28;850;-38
2022/03/22 00:44:36;;;;;;;;;;;;;;;;;;1039457;28;937;-39
2022/03/22 00:45:07;;;;;;;;;;;;;;;;;;1039328;28;917;-38
2022/03/22 00:45:38;;;;;;;;;;;;;;;;;;1039336;28;914;-37
2022/03/22 00:46:08;;;;;;;;;;;;;;;;;;1039218;28;842;-38
2022/03/22 00:46:38;;;;;;;;;;;;;;;;;;1039322;28;1642;-36
2022/03/22 00:47:09;;;;;;;;;;;;;;;;;;1039349;28;775;-38
2022/03/22 00:47:39;;;;;;;;;;;;;;;;;;1039145;28;1070;-38
2022/03/22 00:48:13;;;;;;;;;;;;;;;;;;1035124;28;779;-37
2022/03/22 00:48:47;;;;;;;;;;;;;;;;;;1035454;28;819;-38
2022/03/22 00:49:17;;;;;;;;;;;;;;;;;;1035490;28;934;-38
2022/03/22 00:49:48;;;;;;;;;;;;;;;;;;1036269;28;973;-38
2022/03/22 00:50:20;;;;;;;;;;;;;;;;;;1036024;28;805;-37
2022/03/22 00:50:51;;;;;;;;;;;;;;;;;;1036101;28;776;-37
2022/03/22 00:51:23;;;;;;;;;;;;;;;;;;1035814;28;1926;-37
2022/03/22 00:51:54;;;;;;;;;;;;;;;;;;1036203;28;938;-38
2022/03/22 00:52:25;;;;;;;;;;;;;;;;;;1035986;28;910;-37
2022/03/22 00:52:56;;;;;;;;;;;;;;;;;;1036169;28;891;-36
2022/03/22 00:53:27;;;;;;;;;;;;;;;;;;1035712;28;898;-37
2022/03/22 00:54:02;;;;;;;;;;;;;;;;;;1036075;28;842;-38
2022/03/22 00:54:33;;;;;;;;;;;;;;;;;;1036023;28;842;-36
2022/03/22 00:55:05;;;;;;;;;;;;;;;;;;1036105;28;926;-37
2022/03/22 00:55:36;;;;;;;;;;;;;;;;;;1035994;28;926;-35
2022/03/22 00:56:07;;;;;;;;;;;;;;;;;;1036149;28;891;-37
2022/03/22 00:56:37;;;;;;;;;;;;;;;;;;1036034;28;968;-38
2022/03/22 00:57:07;;;;;;;;;;;;;;;;;;1036157;28;914;-38
2022/03/22 00:57:38;;;;;;;;;;;;;;;;;;1035897;28;776;-37
2022/03/22 00:58:09;;;;;;;;;;;;;;;;;;1036050;28;827;-33
2022/03/22 00:58:39;;;;;;;;;;;;;;;;;;1035971;28;894;-37
2022/03/22 01:00:01;;;;;;;;;;;;;;;;;;1036026;28;945;-37
2022/03/22 01:00:32;;;;;;;;;;;;;;;;;;1036046;28;886;-37
2022/03/22 01:01:02;;;;;;;;;;;;;;;;;;1035742;28;945;-37
2022/03/22 01:01:32;;;;;;;;;;;;;;;;;;1035911;28;969;-37
2022/03/22 01:02:03;;;;;;;;;;;;;;;;;;1036118;28;799;-37
2022/03/22 01:02:34;;;;;;;;;;;;;;;;;;1035948;28;903;-37
2022/03/22 01:03:05;;;;;;;;;;;;;;;;;;1036177;28;827;-36
2022/03/22 01:03:35;;;;;;;;;;;;;;;;;;1036009;28;855;-37
2022/03/22 01:04:06;;;;;;;;;;;;;;;;;;1035988;28;771;-37
2022/03/22 01:04:36;;;;;;;;;;;;;;;;;;1035986;28;894;-37
2022/03/22 01:05:13;;;;;;;;;;;;;;;;;;1036190;28;818;-37
2022/03/22 01:05:43;;;;;;;;;;;;;;;;;;1035830;28;961;-38
2022/03/22 01:06:14;;;;;;;;;;;;;;;;;;1036050;28;946;-35
2022/03/22 01:06:44;;;;;;;;;;;;;;;;;;1035962;28;866;-38
2022/03/22 01:07:14;;;;;;;;;;;;;;;;;;1036059;28;1221;-37
2022/03/22 01:07:46;;;;;;;;;;;;;;;;;;1035940;28;871;-36
2022/03/22 01:08:16;;;;;;;;;;;;;;;;;;1035671;28;914;-39
2022/03/22 01:08:47;;;;;;;;;;;;;;;;;;1036133;28;910;-38
2022/03/22 01:09:17;;;;;;;;;;;;;;;;;;1035936;28;822;-37
2022/03/22 01:09:47;;;;;;;;;;;;;;;;;;1036154;28;812;-34
2022/03/22 01:10:19;;;;;;;;;;;;;;;;;;1035976;28;890;-37
2022/03/22 01:10:52;;;;;;;;;;;;;;;;;;1035931;28;958;-37
2022/03/22 01:11:23;;;;;;;;;;;;;;;;;;1035813;28;1925;-36
2022/03/22 01:11:53;;;;;;;;;;;;;;;;;;1036028;28;1734;-38
2022/03/22 01:12:24;;;;;;;;;;;;;;;;;;1036003;28;792;-36
2022/03/22 01:12:54;;;;;;;;;;;;;;;;;;1036081;28;787;-37
2022/03/22 01:13:27;;;;;;;;;;;;;;;;;;1035933;28;847;-38
2022/03/22 01:13:57;;;;;;;;;;;;;;;;;;1035974;28;1017;-36
2022/03/22 01:14:28;;;;;;;;;;;;;;;;;;1035839;28;907;-36
2022/03/22 01:14:59;;;;;;;;;;;;;;;;;;1036034;28;795;-37
2022/03/22 01:15:33;;;;;;;;;;;;;;;;;;1035977;28;823;-37
2022/03/22 01:16:05;;;;;;;;;;;;;;;;;;1035843;28;704;-37
2022/03/22 01:16:35;;;;;;;;;;;;;;;;;;1035836;28;1002;-38
2022/03/22 01:17:06;;;;;;;;;;;;;;;;;;1036093;28;950;-38
2022/03/22 01:17:37;;;;;;;;;;;;;;;;;;1035899;28;834;-38
2022/03/22 01:18:08;;;;;;;;;;;;;;;;;;1036008;28;866;-36
2022/03/22 01:18:38;;;;;;;;;;;;;;;;;;1035730;28;1429;-38
2022/03/22 01:19:08;;;;;;;;;;;;;;;;;;1036092;28;942;-38
2022/03/22 01:19:39;;;;;;;;;;;;;;;;;;1035898;28;969;-38
2022/03/22 01:20:10;;;;;;;;;;;;;;;;;;1036072;28;917;-37
2022/03/22 01:20:46;;;;;;;;;;;;;;;;;;1035867;28;926;-37
2022/03/22 01:21:16;;;;;;;;;;;;;;;;;;1035900;28;831;-36
2022/03/22 01:21:47;;;;;;;;;;;;;;;;;;1037515;28;1078;-38
2022/03/22 01:22:17;;;;;;;;;;;;;;;;;;1040098;28;1151;-36
2022/03/22 01:22:48;;;;;;;;;;;;;;;;;;1039986;28;1000;-37
2022/03/22 01:23:22;;;;;;;;;;;;;;;;;;1039812;28;858;-38
2022/03/22 01:23:52;;;;;;;;;;;;;;;;;;1039913;28;921;-37
2022/03/22 01:24:23;;;;;;;;;;;;;;;;;;1040066;28;914;-38
2022/03/22 01:24:53;;;;;;;;;;;;;;;;;;1040086;28;842;-37
2022/03/22 01:25:25;;;;;;;;;;;;;;;;;;1037035;28;1228;-38
2022/03/22 01:25:55;;;;;;;;;;;;;;;;;;1035980;28;878;-38
2022/03/22 01:26:27;;;;;;;;;;;;;;;;;;1035962;28;887;-38
2022/03/22 01:26:57;;;;;;;;;;;;;;;;;;1035840;28;896;-37
2022/03/22 01:27:27;;;;;;;;;;;;;;;;;;1036023;28;975;-37
2022/03/22 01:27:58;;;;;;;;;;;;;;;;;;1035762;28;936;-38
2022/03/22 01:28:28;;;;;;;;;;;;;;;;;;1035959;28;934;-38
2022/03/22 01:28:59;;;;;;;;;;;;;;;;;;1035746;28;997;-38
2022/03/22 01:29:29;;;;;;;;;;;;;;;;;;1035995;28;795;-37
2022/03/22 01:30:00;;;;;;;;;;;;;;;;;;1035960;28;780;-36
2022/03/22 01:30:30;;;;;;;;;;;;;;;;;;1035639;28;769;-38
2022/03/22 01:31:01;;;;;;;;;;;;;;;;;;1035959;28;879;-38
2022/03/22 01:31:31;;;;;;;;;;;;;;;;;;1035946;28;985;-37
2022/03/22 01:32:02;;;;;;;;;;;;;;;;;;1035860;28;830;-38
2022/03/22 01:32:34;;;;;;;;;;;;;;;;;;1036028;28;878;-38
2022/03/22 01:33:05;;;;;;;;;;;;;;;;;;1035857;28;1021;-38
2022/03/22 01:33:35;;;;;;;;;;;;;;;;;;1035951;28;874;-37
2022/03/22 01:34:06;;;;;;;;;;;;;;;;;;1036022;28;787;-37
2022/03/22 01:34:36;;;;;;;;;;;;;;;;;;1035805;28;820;-37
2022/03/22 01:35:09;;;;;;;;;;;;;;;;;;1035997;28;979;-42
2022/03/22 01:35:40;;;;;;;;;;;;;;;;;;1035709;28;1649;-38
2022/03/22 01:36:10;;;;;;;;;;;;;;;;;;1035879;28;1373;-37
2022/03/22 01:36:41;;;;;;;;;;;;;;;;;;1035933;28;898;-37
2022/03/22 01:37:11;;;;;;;;;;;;;;;;;;1035879;28;787;-36
2022/03/22 01:37:41;;;;;;;;;;;;;;;;;;1035805;28;906;-37
2022/03/22 01:38:12;;;;;;;;;;;;;;;;;;1035579;28;878;-38
2022/03/22 01:38:42;;;;;;;;;;;;;;;;;;1035896;28;909;-38
2022/03/22 01:39:13;;;;;;;;;;;;;;;;;;1035958;28;930;-38
2022/03/22 01:39:43;;;;;;;;;;;;;;;;;;1035805;28;830;-38
2022/03/22 01:40:14;;;;;;;;;;;;;;;;;;1035990;28;926;-38
2022/03/22 01:40:44;;;;;;;;;;;;;;;;;;1035873;28;907;-38
2022/03/22 01:41:16;;;;;;;;;;;;;;;;;;1035862;28;772;-38
2022/03/22 01:41:46;;;;;;;;;;;;;;;;;;1035810;28;786;-38
2022/03/22 01:42:17;;;;;;;;;;;;;;;;;;1035818;28;879;-38
2022/03/22 01:42:47;;;;;;;;;;;;;;;;;;1035949;28;895;-37
2022/03/22 01:43:18;;;;;;;;;;;;;;;;;;1035839;28;981;-38
2022/03/22 01:43:48;;;;;;;;;;;;;;;;;;1035762;28;985;-37
2022/03/22 01:44:18;;;;;;;;;;;;;;;;;;1035993;28;899;-38
2022/03/22 01:44:49;;;;;;;;;;;;;;;;;;1035887;28;771;-38
2022/03/22 01:45:19;;;;;;;;;;;;;;;;;;1035533;28;819;-38
2022/03/22 01:45:50;;;;;;;;;;;;;;;;;;1035806;28;875;-37
2022/03/22 01:46:23;;;;;;;;;;;;;;;;;;1035771;28;887;-38
2022/03/22 01:46:56;;;;;;;;;;;;;;;;;;1035867;28;842;-38
2022/03/22 01:47:28;;;;;;;;;;;;;;;;;;1035926;28;962;-38
2022/03/22 01:47:59;;;;;;;;;;;;;;;;;;1038258;28;1106;-37
2022/03/22 01:48:30;;;;;;;;;;;;;;;;;;1039932;28;870;-34
2022/03/22 01:49:00;;;;;;;;;;;;;;;;;;1039812;28;783;-36
2022/03/22 01:49:31;;;;;;;;;;;;;;;;;;1040121;28;827;-37
2022/03/22 01:50:02;;;;;;;;;;;;;;;;;;1039798;28;894;-38
2022/03/22 01:50:32;;;;;;;;;;;;;;;;;;1039990;28;811;-36
2022/03/22 01:51:03;;;;;;;;;;;;;;;;;;1039780;28;1918;-37
2022/03/22 01:51:33;;;;;;;;;;;;;;;;;;1039933;28;951;-38
2022/03/22 01:52:04;;;;;;;;;;;;;;;;;;1039853;28;928;-38
2022/03/22 01:52:36;;;;;;;;;;;;;;;;;;1039840;28;847;-38
2022/03/22 01:53:09;;;;;;;;;;;;;;;;;;1039728;28;851;-38
2022/03/22 01:53:40;;;;;;;;;;;;;;;;;;1039951;28;823;-38
2022/03/22 01:54:12;;;;;;;;;;;;;;;;;;1039834;28;926;-37
2022/03/22 01:54:42;;;;;;;;;;;;;;;;;;1039904;28;842;-36
2022/03/22 01:55:14;;;;;;;;;;;;;;;;;;1040010;28;834;-36
2022/03/22 01:55:44;;;;;;;;;;;;;;;;;;1039925;28;851;-37
2022/03/22 01:56:15;;;;;;;;;;;;;;;;;;1039911;28;823;-38
2022/03/22 01:56:45;;;;;;;;;;;;;;;;;;1039887;28;974;-37
2022/03/22 01:57:24;;;;;;;;;;;;;;;;;;1039783;28;792;-38
2022/03/22 01:57:55;;;;;;;;;;;;;;;;;;1039798;28;854;-38
2022/03/22 01:58:25;;;;;;;;;;;;;;;;;;1039843;28;869;-36
2022/03/22 01:58:56;;;;;;;;;;;;;;;;;;1039907;28;914;-37
2022/03/22 01:59:26;;;;;;;;;;;;;;;;;;1039974;28;942;-38
2022/03/22 01:59:57;;;;;;;;;;;;;;;;;;1039862;28;862;-37
2022/03/22 02:00:27;;;;;;;;;;;;;;;;;;1039628;28;902;-38
2022/03/22 02:05:51;;;;;;;;;;;;;;;;;;1034830;28;803;-38
2022/03/22 02:06:00;;;;;;;;;;;;;;;;;;1040005;28;775;-37
2022/03/22 02:06:33;;;;;;;;;;;;;;;;;;1039836;28;767;-37
2022/03/22 02:07:04;;;;;;;;;;;;;;;;;;1039854;28;1213;-38
2022/03/22 02:07:34;;;;;;;;;;;;;;;;;;1039426;28;918;-37
2022/03/22 02:08:08;;;;;;;;;;;;;;;;;;1039888;28;858;-38
2022/03/22 02:08:38;;;;;;;;;;;;;;;;;;1039887;28;1159;-37
2022/03/22 02:09:09;;;;;;;;;;;;;;;;;;1039659;28;957;-37
2022/03/22 02:09:39;;;;;;;;;;;;;;;;;;1040017;28;894;-38
2022/03/22 02:10:10;;;;;;;;;;;;;;;;;;1039825;28;850;-38
2022/03/22 02:10:40;;;;;;;;;;;;;;;;;;1039900;28;799;-38
2022/03/22 02:11:11;;;;;;;;;;;;;;;;;;1039716;28;1971;-38
2022/03/22 02:11:42;;;;;;;;;;;;;;;;;;1039881;28;890;-38
2022/03/22 02:12:13;;;;;;;;;;;;;;;;;;1039899;28;803;-37
2022/03/22 02:12:46;;;;;;;;;;;;;;;;;;1039827;28;914;-36
2022/03/22 02:13:18;;;;;;;;;;;;;;;;;;1039866;28;815;-37
2022/03/22 02:13:48;;;;;;;;;;;;;;;;;;1039813;28;767;-36
2022/03/22 02:14:18;;;;;;;;;;;;;;;;;;1039764;28;788;-37
2022/03/22 02:14:49;;;;;;;;;;;;;;;;;;1039783;28;890;-35
2022/03/22 02:15:19;;;;;;;;;;;;;;;;;;1039512;28;946;-37
2022/03/22 02:15:52;;;;;;;;;;;;;;;;;;1039895;28;850;-38
2022/03/22 02:16:22;;;;;;;;;;;;;;;;;;1039968;28;887;-38
2022/03/22 02:16:52;;;;;;;;;;;;;;;;;;1039641;28;957;-37
2022/03/22 02:17:22;;;;;;;;;;;;;;;;;;1039947;28;850;-37
2022/03/22 02:17:53;;;;;;;;;;;;;;;;;;1039696;28;768;-38
2022/03/22 02:18:24;;;;;;;;;;;;;;;;;;1039864;28;882;-38
2022/03/22 02:18:54;;;;;;;;;;;;;;;;;;1039887;28;830;-38
2022/03/22 02:19:25;;;;;;;;;;;;;;;;;;1039661;28;1727;-37
2022/03/22 02:19:56;;;;;;;;;;;;;;;;;;1039872;28;831;-38
2022/03/22 02:20:27;;;;;;;;;;;;;;;;;;1039861;28;1034;-38
2022/03/22 02:20:58;;;;;;;;;;;;;;;;;;1039751;28;827;-35
2022/03/22 02:21:30;;;;;;;;;;;;;;;;;;1039844;28;803;-38
2022/03/22 02:22:01;;;;;;;;;;;;;;;;;;1039784;28;890;-38
2022/03/22 02:22:35;;;;;;;;;;;;;;;;;;1035757;28;1137;-38
2022/03/22 02:23:10;;;;;;;;;;;;;;;;;;1035802;28;882;-38
2022/03/22 02:23:55;;;;;;;;;;;;;;;;;;1035596;28;1081;-37
2022/03/22 02:24:25;;;;;;;;;;;;;;;;;;1035776;28;937;-36
2022/03/22 02:24:56;;;;;;;;;;;;;;;;;;1035680;28;929;-37
2022/03/22 02:25:26;;;;;;;;;;;;;;;;;;1038985;28;1197;-38
2022/03/22 02:25:56;;;;;;;;;;;;;;;;;;1039813;28;953;-37
2022/03/22 02:26:27;;;;;;;;;;;;;;;;;;1039700;28;886;-35
2022/03/22 02:26:58;;;;;;;;;;;;;;;;;;1039910;28;807;-38
2022/03/22 02:27:30;;;;;;;;;;;;;;;;;;1039766;28;960;-38
2022/03/22 02:28:01;;;;;;;;;;;;;;;;;;1039658;28;827;-37
2022/03/22 02:28:31;;;;;;;;;;;;;;;;;;1039883;28;964;-37
2022/03/22 02:29:02;;;;;;;;;;;;;;;;;;1039646;28;882;-37
2022/03/22 02:29:32;;;;;;;;;;;;;;;;;;1039891;28;871;-38
2022/03/22 02:30:03;;;;;;;;;;;;;;;;;;1039418;28;846;-39
2022/03/22 02:30:33;;;;;;;;;;;;;;;;;;1039739;28;767;-38
2022/03/22 02:31:04;;;;;;;;;;;;;;;;;;1039628;28;1984;-37
2022/03/22 02:31:34;;;;;;;;;;;;;;;;;;1039831;28;1008;-34
2022/03/22 02:32:07;;;;;;;;;;;;;;;;;;1039729;28;894;-38
2022/03/22 02:32:37;;;;;;;;;;;;;;;;;;1039932;28;842;-37
2022/03/22 02:33:08;;;;;;;;;;;;;;;;;;1039670;28;882;-36
2022/03/22 02:33:42;;;;;;;;;;;;;;;;;;1039876;28;902;-38
2022/03/22 02:34:13;;;;;;;;;;;;;;;;;;1039492;28;858;-38
2022/03/22 02:34:44;;;;;;;;;;;;;;;;;;1039858;28;883;-37
2022/03/22 02:35:14;;;;;;;;;;;;;;;;;;1035294;28;870;-37
2022/03/22 02:35:45;;;;;;;;;;;;;;;;;;1039435;28;902;-37
2022/03/22 02:36:16;;;;;;;;;;;;;;;;;;1039413;28;945;-38
2022/03/22 02:36:46;;;;;;;;;;;;;;;;;;1039447;28;878;-38
2022/03/22 02:37:17;;;;;;;;;;;;;;;;;;1039422;28;993;-38
2022/03/22 02:37:47;;;;;;;;;;;;;;;;;;1039742;28;871;-37
2022/03/22 02:38:18;;;;;;;;;;;;;;;;;;1039616;28;779;-35
2022/03/22 02:38:48;;;;;;;;;;;;;;;;;;1039756;28;926;-34
2022/03/22 02:39:19;;;;;;;;;;;;;;;;;;1039746;28;910;-35
2022/03/22 02:39:49;;;;;;;;;;;;;;;;;;1039769;28;965;-37
2022/03/22 02:40:20;;;;;;;;;;;;;;;;;;1039563;28;937;-37
2022/03/22 02:40:50;;;;;;;;;;;;;;;;;;1039622;28;1196;-38
2022/03/22 02:41:21;;;;;;;;;;;;;;;;;;1039832;28;945;-38
2022/03/22 02:41:52;;;;;;;;;;;;;;;;;;1039791;28;882;-37
2022/03/22 02:42:22;;;;;;;;;;;;;;;;;;1039568;28;866;-38
2022/03/22 02:42:55;;;;;;;;;;;;;;;;;;1039851;28;969;-38
2022/03/22 02:43:26;;;;;;;;;;;;;;;;;;1039607;28;835;-39
2022/03/22 02:43:57;;;;;;;;;;;;;;;;;;1039844;28;1028;-37
2022/03/22 02:44:27;;;;;;;;;;;;;;;;;;1039493;28;946;-36
2022/03/22 02:44:57;;;;;;;;;;;;;;;;;;1039608;28;974;-37
2022/03/22 02:45:28;;;;;;;;;;;;;;;;;;1035266;28;891;-37
2022/03/22 02:45:58;;;;;;;;;;;;;;;;;;1035451;28;988;-36
2022/03/22 02:46:28;;;;;;;;;;;;;;;;;;1035241;28;909;-37
2022/03/22 02:46:59;;;;;;;;;;;;;;;;;;1035357;28;882;-37
2022/03/22 02:47:29;;;;;;;;;;;;;;;;;;1039527;28;764;-38
2022/03/22 02:47:59;;;;;;;;;;;;;;;;;;1036643;28;1107;-38
2022/03/22 02:48:30;;;;;;;;;;;;;;;;;;1035587;28;835;-37
2022/03/22 02:49:00;;;;;;;;;;;;;;;;;;1035555;28;1297;-38
2022/03/22 02:49:30;;;;;;;;;;;;;;;;;;1035653;28;827;-38
2022/03/22 02:50:01;;;;;;;;;;;;;;;;;;1035735;28;1591;-38
2022/03/22 02:50:31;;;;;;;;;;;;;;;;;;1035500;28;835;-37
2022/03/22 02:51:01;;;;;;;;;;;;;;;;;;1035721;28;942;-38
2022/03/22 02:51:32;;;;;;;;;;;;;;;;;;1035300;28;1921;-38
2022/03/22 02:52:02;;;;;;;;;;;;;;;;;;1035560;28;906;-37
2022/03/22 02:52:33;;;;;;;;;;;;;;;;;;1035503;28;941;-38
2022/03/22 02:53:03;;;;;;;;;;;;;;;;;;1035621;28;839;-37
2022/03/22 02:53:34;;;;;;;;;;;;;;;;;;1035615;28;790;-37
2022/03/22 02:54:04;;;;;;;;;;;;;;;;;;1035611;28;1195;-38
2022/03/22 02:54:35;;;;;;;;;;;;;;;;;;1035523;28;846;-37
2022/03/22 02:55:06;;;;;;;;;;;;;;;;;;1035694;28;878;-38
2022/03/22 02:55:36;;;;;;;;;;;;;;;;;;1035568;28;954;-39
2022/03/22 02:56:07;;;;;;;;;;;;;;;;;;1035707;28;1585;-35
2022/03/22 02:56:37;;;;;;;;;;;;;;;;;;1035625;28;946;-37
2022/03/22 02:57:08;;;;;;;;;;;;;;;;;;1035646;28;891;-38
2022/03/22 02:57:39;;;;;;;;;;;;;;;;;;1035601;28;850;-38
2022/03/22 02:58:09;;;;;;;;;;;;;;;;;;1035507;28;866;-38
2022/03/22 02:58:40;;;;;;;;;;;;;;;;;;1035616;28;789;-38
2022/03/22 02:59:10;;;;;;;;;;;;;;;;;;1035560;28;1112;-37
2022/03/22 02:59:40;;;;;;;;;;;;;;;;;;1035249;28;842;-36
2022/03/22 03:00:11;;;;;;;;;;;;;;;;;;1035765;28;791;-37
2022/03/22 03:00:42;;;;;;;;;;;;;;;;;;1035429;28;796;-38
2022/03/22 03:01:12;;;;;;;;;;;;;;;;;;1035632;28;926;-38
2022/03/22 03:01:42;;;;;;;;;;;;;;;;;;1035616;28;958;-38
2022/03/22 03:02:13;;;;;;;;;;;;;;;;;;1035564;28;941;-37
2022/03/22 03:02:46;;;;;;;;;;;;;;;;;;1035709;28;788;-37
2022/03/22 03:03:21;;;;;;;;;;;;;;;;;;1035571;28;910;-36
2022/03/22 03:03:53;;;;;;;;;;;;;;;;;;1035623;28;953;-38
2022/03/22 03:04:23;;;;;;;;;;;;;;;;;;1035505;28;946;-38
2022/03/22 03:04:54;;;;;;;;;;;;;;;;;;1035545;28;993;-38
2022/03/22 03:05:24;;;;;;;;;;;;;;;;;;1035633;28;823;-38
2022/03/22 03:05:54;;;;;;;;;;;;;;;;;;1035519;28;925;-38
2022/03/22 03:06:28;;;;;;;;;;;;;;;;;;1035586;28;831;-36
2022/03/22 03:06:59;;;;;;;;;;;;;;;;;;1034813;28;1280;-38
2022/03/22 03:07:29;;;;;;;;;;;;;;;;;;1035149;28;883;-38
2022/03/22 03:08:00;;;;;;;;;;;;;;;;;;1035250;28;854;-36
2022/03/22 03:08:31;;;;;;;;;;;;;;;;;;1035146;28;898;-36
2022/03/22 03:09:02;;;;;;;;;;;;;;;;;;1035708;28;784;-38
2022/03/22 03:09:32;;;;;;;;;;;;;;;;;;1035439;28;944;-38
2022/03/22 03:10:04;;;;;;;;;;;;;;;;;;1035529;28;862;-36
2022/03/22 03:10:34;;;;;;;;;;;;;;;;;;1035474;28;882;-37
2022/03/22 03:11:05;;;;;;;;;;;;;;;;;;1035695;28;891;-37
2022/03/22 03:11:35;;;;;;;;;;;;;;;;;;1035473;28;922;-38
2022/03/22 03:12:06;;;;;;;;;;;;;;;;;;1035592;28;792;-38
2022/03/22 03:12:37;;;;;;;;;;;;;;;;;;1034958;28;830;-38
2022/03/22 03:13:07;;;;;;;;;;;;;;;;;;1035173;28;930;-38
2022/03/22 03:14:38;;;;;;;;;;;;;;;;;;1035147;28;934;-37
2022/03/22 03:15:09;;;;;;;;;;;;;;;;;;1035513;28;826;-37
2022/03/22 03:15:40;;;;;;;;;;;;;;;;;;1035587;28;818;-38
2022/03/22 03:16:10;;;;;;;;;;;;;;;;;;1035562;28;807;-37
2022/03/22 03:16:41;;;;;;;;;;;;;;;;;;1035432;28;902;-38
2022/03/22 03:17:13;;;;;;;;;;;;;;;;;;1035577;28;938;-36
2022/03/22 03:17:44;;;;;;;;;;;;;;;;;;1035431;28;850;-37
2022/03/22 03:18:14;;;;;;;;;;;;;;;;;;1035497;28;938;-38
2022/03/22 03:18:45;;;;;;;;;;;;;;;;;;1035593;28;937;-37
2022/03/22 03:19:15;;;;;;;;;;;;;;;;;;1035538;28;594;-37
2022/03/22 03:19:45;;;;;;;;;;;;;;;;;;1035512;28;918;-38
2022/03/22 03:20:15;;;;;;;;;;;;;;;;;;1035593;28;1701;-37
2022/03/22 03:20:46;;;;;;;;;;;;;;;;;;1035324;28;906;-38
2022/03/22 03:21:17;;;;;;;;;;;;;;;;;;1035638;28;807;-37
2022/03/22 03:21:47;;;;;;;;;;;;;;;;;;1035071;28;851;-38
2022/03/22 03:22:18;;;;;;;;;;;;;;;;;;1035532;28;1141;-36
2022/03/22 03:22:49;;;;;;;;;;;;;;;;;;1035393;28;890;-37
2022/03/22 03:23:19;;;;;;;;;;;;;;;;;;1035570;28;977;-38
2022/03/22 03:23:49;;;;;;;;;;;;;;;;;;1035455;28;867;-38
2022/03/22 03:24:20;;;;;;;;;;;;;;;;;;1035544;28;1637;-37
2022/03/22 03:24:50;;;;;;;;;;;;;;;;;;1035348;28;862;-37
2022/03/22 03:25:20;;;;;;;;;;;;;;;;;;1038133;28;1192;-38
2022/03/22 03:25:52;;;;;;;;;;;;;;;;;;1039407;28;791;-36
2022/03/22 03:26:22;;;;;;;;;;;;;;;;;;1039778;28;906;-35
2022/03/22 03:26:52;;;;;;;;;;;;;;;;;;1039324;28;922;-36
2022/03/22 03:27:23;;;;;;;;;;;;;;;;;;1039676;28;1013;-38
2022/03/22 03:27:53;;;;;;;;;;;;;;;;;;1039327;28;886;-37
2022/03/22 03:28:23;;;;;;;;;;;;;;;;;;1039604;28;1012;-35
2022/03/22 03:28:53;;;;;;;;;;;;;;;;;;1039225;28;796;-37
2022/03/22 03:29:24;;;;;;;;;;;;;;;;;;1039733;28;883;-38
2022/03/22 03:29:54;;;;;;;;;;;;;;;;;;1039456;28;639;-37
2022/03/22 03:30:25;;;;;;;;;;;;;;;;;;1039781;28;974;-38
2022/03/22 03:30:55;;;;;;;;;;;;;;;;;;1039350;28;874;-38
2022/03/22 03:31:26;;;;;;;;;;;;;;;;;;1039593;28;1910;-38
2022/03/22 03:31:56;;;;;;;;;;;;;;;;;;1039656;28;993;-38
2022/03/22 03:32:27;;;;;;;;;;;;;;;;;;1039440;28;807;-38
2022/03/22 03:32:57;;;;;;;;;;;;;;;;;;1039546;28;942;-38
2022/03/22 03:33:28;;;;;;;;;;;;;;;;;;1039578;28;870;-37
2022/03/22 03:33:58;;;;;;;;;;;;;;;;;;1039572;28;830;-35
2022/03/22 03:34:28;;;;;;;;;;;;;;;;;;1039571;28;938;-38
2022/03/22 03:34:59;;;;;;;;;;;;;;;;;;1039513;28;874;-37
2022/03/22 03:35:29;;;;;;;;;;;;;;;;;;1039526;28;969;-38
2022/03/22 03:35:59;;;;;;;;;;;;;;;;;;1039663;28;934;-37
2022/03/22 03:36:30;;;;;;;;;;;;;;;;;;1039201;28;990;-38
2022/03/22 03:37:00;;;;;;;;;;;;;;;;;;1039585;28;823;-37
2022/03/22 03:37:37;;;;;;;;;;;;;;;;;;1039421;28;796;-38
2022/03/22 03:38:08;;;;;;;;;;;;;;;;;;1039407;28;957;-37
2022/03/22 03:38:41;;;;;;;;;;;;;;;;;;1039630;28;891;-38
2022/03/22 03:39:11;;;;;;;;;;;;;;;;;;1039421;28;954;-35
2022/03/22 03:39:43;;;;;;;;;;;;;;;;;;1039602;28;1633;-36
2022/03/22 03:40:13;;;;;;;;;;;;;;;;;;1039432;28;902;-37
2022/03/22 03:42:21;;;;;;;;;;;;;;;;;;1039591;28;819;-37
2022/03/22 03:42:52;;;;;;;;;;;;;;;;;;1039436;28;830;-37
2022/03/22 03:43:22;;;;;;;;;;;;;;;;;;1039538;28;910;-38
2022/03/22 03:43:53;;;;;;;;;;;;;;;;;;1039241;28;850;-37
2022/03/22 03:47:04;;;;;;;;;;;;;;;;;;1039443;28;914;-38
2022/03/22 03:47:34;;;;;;;;;;;;;;;;;;1039354;28;918;-38
2022/03/22 03:48:04;;;;;;;;;;;;;;;;;;1042884;28;1091;-38
2022/03/22 03:48:37;;;;;;;;;;;;;;;;;;1043661;28;803;-38